sensor_id;sensor_type;location;lat;lon;timestamp;P1;durP1;ratioP1;P2;durP2;ratioP2
40254;SDS011;25973;52.368;4.940;2022-10-31T00:01:17;10.48;;;4.93;;
40254;SDS011;25973;52.368;4.940;2022-10-31T00:03:54;14.60;;;6.63;;
40254;SDS011;25973;52.368;4.940;2022-10-31T00:06:21;16.52;;;7.50;;
40254;SDS011;25973;52.368;4.940;2022-10-31T00:08:51;10.38;;;3.42;;
40254;SDS011;25973;52.368;4.940;2022-10-31T00:11:18;9.05;;;3.08;;
40254;SDS011;25973;52.368;4.940;2022-10-31T00:13:44;5.45;;;2.50;;
40254;SDS011;25973;52.368;4.940;2022-10-31T00:16:16;3.78;;;2.53;;
40254;SDS011;25973;52.368;4.940;2022-10-31T00:18:43;5.88;;;2.20;;
40254;SDS011;25973;52.368;4.940;2022-10-31T00:21:09;7.30;;;2.42;;
40254;SDS011;25973;52.368;4.940;2022-10-31T00:23:35;6.28;;;2.40;;
40254;SDS011;25973;52.368;4.940;2022-10-31T00:26:03;6.05;;;2.30;;
40254;SDS011;25973;52.368;4.940;2022-10-31T00:28:30;9.55;;;2.88;;
40254;SDS011;25973;52.368;4.940;2022-10-31T00:31:00;5.88;;;2.22;;
40254;SDS011;25973;52.368;4.940;2022-10-31T00:33:26;5.20;;;2.78;;
40254;SDS011;25973;52.368;4.940;2022-10-31T00:35:52;5.88;;;2.53;;
40254;SDS011;25973;52.368;4.940;2022-10-31T00:38:18;4.88;;;2.28;;
40254;SDS011;25973;52.368;4.940;2022-10-31T00:40:43;8.52;;;2.45;;
40254;SDS011;25973;52.368;4.940;2022-10-31T00:43:09;6.13;;;2.38;;
40254;SDS011;25973;52.368;4.940;2022-10-31T00:45:34;4.07;;;1.92;;
40254;SDS011;25973;52.368;4.940;2022-10-31T00:48:00;7.82;;;2.70;;
40254;SDS011;25973;52.368;4.940;2022-10-31T00:50:25;4.03;;;1.77;;
40254;SDS011;25973;52.368;4.940;2022-10-31T00:52:51;7.55;;;2.40;;
40254;SDS011;25973;52.368;4.940;2022-10-31T00:55:17;6.18;;;2.65;;
40254;SDS011;25973;52.368;4.940;2022-10-31T00:57:42;6.97;;;3.60;;
40254;SDS011;25973;52.368;4.940;2022-10-31T01:00:11;7.25;;;2.47;;
40254;SDS011;25973;52.368;4.940;2022-10-31T01:02:37;5.82;;;2.00;;
40254;SDS011;25973;52.368;4.940;2022-10-31T01:05:05;6.57;;;2.13;;
40254;SDS011;25973;52.368;4.940;2022-10-31T01:07:31;3.45;;;1.85;;
40254;SDS011;25973;52.368;4.940;2022-10-31T01:10:00;6.47;;;2.33;;
40254;SDS011;25973;52.368;4.940;2022-10-31T01:12:25;5.85;;;2.20;;
40254;SDS011;25973;52.368;4.940;2022-10-31T01:14:51;5.50;;;2.42;;
40254;SDS011;25973;52.368;4.940;2022-10-31T01:17:16;5.10;;;2.20;;
40254;SDS011;25973;52.368;4.940;2022-10-31T01:19:42;6.22;;;2.35;;
40254;SDS011;25973;52.368;4.940;2022-10-31T01:22:07;7.15;;;2.17;;
40254;SDS011;25973;52.368;4.940;2022-10-31T01:24:33;7.82;;;2.47;;
40254;SDS011;25973;52.368;4.940;2022-10-31T01:26:58;5.55;;;2.55;;
40254;SDS011;25973;52.368;4.940;2022-10-31T01:29:24;6.72;;;2.90;;
40254;SDS011;25973;52.368;4.940;2022-10-31T01:31:49;7.10;;;3.22;;
40254;SDS011;25973;52.368;4.940;2022-10-31T01:34:16;5.88;;;2.60;;
40254;SDS011;25973;52.368;4.940;2022-10-31T01:36:42;5.22;;;3.13;;
40254;SDS011;25973;52.368;4.940;2022-10-31T01:39:11;4.85;;;2.67;;
40254;SDS011;25973;52.368;4.940;2022-10-31T01:41:40;6.47;;;2.60;;
40254;SDS011;25973;52.368;4.940;2022-10-31T01:46:53;10.77;;;2.45;;
40254;SDS011;25973;52.368;4.940;2022-10-31T01:49:34;5.03;;;2.50;;
40254;SDS011;25973;52.368;4.940;2022-10-31T01:54:51;5.03;;;2.70;;
40254;SDS011;25973;52.368;4.940;2022-10-31T01:57:30;7.13;;;3.28;;
40254;SDS011;25973;52.368;4.940;2022-10-31T01:59:59;7.10;;;3.30;;
40254;SDS011;25973;52.368;4.940;2022-10-31T02:04:55;5.45;;;2.70;;
40254;SDS011;25973;52.368;4.940;2022-10-31T02:07:25;9.68;;;2.90;;
40254;SDS011;25973;52.368;4.940;2022-10-31T02:09:56;6.13;;;3.47;;
40254;SDS011;25973;52.368;4.940;2022-10-31T02:12:22;11.68;;;3.60;;
40254;SDS011;25973;52.368;4.940;2022-10-31T02:14:49;4.35;;;2.80;;
40254;SDS011;25973;52.368;4.940;2022-10-31T02:17:14;5.75;;;3.42;;
40254;SDS011;25973;52.368;4.940;2022-10-31T02:19:51;11.27;;;3.30;;
40254;SDS011;25973;52.368;4.940;2022-10-31T02:22:30;8.43;;;3.25;;
40254;SDS011;25973;52.368;4.940;2022-10-31T02:25:12;7.35;;;3.33;;
40254;SDS011;25973;52.368;4.940;2022-10-31T02:33:53;9.30;;;3.77;;
40254;SDS011;25973;52.368;4.940;2022-10-31T02:36:36;5.70;;;3.33;;
40254;SDS011;25973;52.368;4.940;2022-10-31T02:39:18;7.75;;;3.45;;
40254;SDS011;25973;52.368;4.940;2022-10-31T02:44:33;12.52;;;3.83;;
40254;SDS011;25973;52.368;4.940;2022-10-31T02:47:16;5.90;;;3.15;;
40254;SDS011;25973;52.368;4.940;2022-10-31T02:50:07;6.20;;;3.75;;
40254;SDS011;25973;52.368;4.940;2022-10-31T02:52:39;5.60;;;3.47;;
40254;SDS011;25973;52.368;4.940;2022-10-31T02:57:53;9.35;;;4.07;;
40254;SDS011;25973;52.368;4.940;2022-10-31T03:00:22;8.48;;;4.10;;
40254;SDS011;25973;52.368;4.940;2022-10-31T03:05:54;12.98;;;3.97;;
40254;SDS011;25973;52.368;4.940;2022-10-31T03:08:29;7.20;;;4.38;;
40254;SDS011;25973;52.368;4.940;2022-10-31T03:11:13;9.18;;;4.25;;
40254;SDS011;25973;52.368;4.940;2022-10-31T03:13:57;8.23;;;4.10;;
40254;SDS011;25973;52.368;4.940;2022-10-31T03:16:36;12.68;;;3.92;;
40254;SDS011;25973;52.368;4.940;2022-10-31T03:21:41;7.97;;;4.40;;
40254;SDS011;25973;52.368;4.940;2022-10-31T03:24:29;11.00;;;4.70;;
40254;SDS011;25973;52.368;4.940;2022-10-31T03:29:26;10.85;;;4.88;;
40254;SDS011;25973;52.368;4.940;2022-10-31T03:31:56;11.57;;;4.95;;
40254;SDS011;25973;52.368;4.940;2022-10-31T03:34:25;8.95;;;5.18;;
40254;SDS011;25973;52.368;4.940;2022-10-31T03:36:54;13.68;;;4.95;;
40254;SDS011;25973;52.368;4.940;2022-10-31T03:39:22;11.02;;;5.40;;
40254;SDS011;25973;52.368;4.940;2022-10-31T03:41:51;8.98;;;4.85;;
40254;SDS011;25973;52.368;4.940;2022-10-31T03:44:40;12.65;;;5.40;;
40254;SDS011;25973;52.368;4.940;2022-10-31T03:47:11;16.05;;;5.15;;
40254;SDS011;25973;52.368;4.940;2022-10-31T03:49:37;10.05;;;4.70;;
40254;SDS011;25973;52.368;4.940;2022-10-31T03:52:13;9.80;;;5.68;;
40254;SDS011;25973;52.368;4.940;2022-10-31T03:54:57;11.27;;;5.63;;
40254;SDS011;25973;52.368;4.940;2022-10-31T03:57:29;10.13;;;5.68;;
40254;SDS011;25973;52.368;4.940;2022-10-31T04:00:06;12.65;;;6.00;;
40254;SDS011;25973;52.368;4.940;2022-10-31T04:02:34;12.13;;;5.93;;
40254;SDS011;25973;52.368;4.940;2022-10-31T04:05:04;8.32;;;5.32;;
40254;SDS011;25973;52.368;4.940;2022-10-31T04:07:33;12.55;;;6.20;;
40254;SDS011;25973;52.368;4.940;2022-10-31T04:10:06;11.93;;;5.70;;
40254;SDS011;25973;52.368;4.940;2022-10-31T04:12:35;11.70;;;6.07;;
40254;SDS011;25973;52.368;4.940;2022-10-31T04:15:03;12.10;;;5.95;;
40254;SDS011;25973;52.368;4.940;2022-10-31T04:17:31;9.68;;;5.88;;
40254;SDS011;25973;52.368;4.940;2022-10-31T04:20:01;16.20;;;6.15;;
40254;SDS011;25973;52.368;4.940;2022-10-31T04:22:27;14.23;;;6.28;;
40254;SDS011;25973;52.368;4.940;2022-10-31T04:24:53;10.60;;;6.10;;
40254;SDS011;25973;52.368;4.940;2022-10-31T04:27:18;14.35;;;6.82;;
40254;SDS011;25973;52.368;4.940;2022-10-31T04:29:44;15.15;;;6.97;;
40254;SDS011;25973;52.368;4.940;2022-10-31T04:32:09;15.98;;;7.15;;
40254;SDS011;25973;52.368;4.940;2022-10-31T04:34:35;18.38;;;7.40;;
40254;SDS011;25973;52.368;4.940;2022-10-31T04:37:00;13.68;;;5.80;;
40254;SDS011;25973;52.368;4.940;2022-10-31T04:39:26;10.27;;;6.35;;
40254;SDS011;25973;52.368;4.940;2022-10-31T04:41:51;11.10;;;6.70;;
40254;SDS011;25973;52.368;4.940;2022-10-31T04:44:17;10.15;;;6.43;;
40254;SDS011;25973;52.368;4.940;2022-10-31T04:46:42;14.70;;;7.72;;
40254;SDS011;25973;52.368;4.940;2022-10-31T04:49:08;18.00;;;6.88;;
40254;SDS011;25973;52.368;4.940;2022-10-31T04:51:33;13.00;;;7.30;;
40254;SDS011;25973;52.368;4.940;2022-10-31T04:54:02;16.58;;;8.07;;
40254;SDS011;25973;52.368;4.940;2022-10-31T04:56:28;14.52;;;6.60;;
40254;SDS011;25973;52.368;4.940;2022-10-31T04:58:54;14.18;;;7.30;;
40254;SDS011;25973;52.368;4.940;2022-10-31T05:01:19;14.30;;;7.03;;
40254;SDS011;25973;52.368;4.940;2022-10-31T05:03:45;12.25;;;6.65;;
40254;SDS011;25973;52.368;4.940;2022-10-31T05:06:10;11.93;;;6.78;;
40254;SDS011;25973;52.368;4.940;2022-10-31T05:08:36;11.02;;;6.43;;
40254;SDS011;25973;52.368;4.940;2022-10-31T05:11:02;15.02;;;7.38;;
40254;SDS011;25973;52.368;4.940;2022-10-31T05:13:28;12.00;;;7.40;;
40254;SDS011;25973;52.368;4.940;2022-10-31T05:15:54;13.15;;;7.85;;
40254;SDS011;25973;52.368;4.940;2022-10-31T05:18:20;12.88;;;7.35;;
40254;SDS011;25973;52.368;4.940;2022-10-31T05:20:46;17.25;;;6.85;;
40254;SDS011;25973;52.368;4.940;2022-10-31T05:23:11;16.23;;;7.95;;
40254;SDS011;25973;52.368;4.940;2022-10-31T05:25:37;16.60;;;7.75;;
40254;SDS011;25973;52.368;4.940;2022-10-31T05:28:07;13.88;;;7.78;;
40254;SDS011;25973;52.368;4.940;2022-10-31T05:30:33;15.32;;;7.68;;
40254;SDS011;25973;52.368;4.940;2022-10-31T05:32:59;14.30;;;8.60;;
40254;SDS011;25973;52.368;4.940;2022-10-31T05:35:29;18.98;;;8.38;;
40254;SDS011;25973;52.368;4.940;2022-10-31T05:37:56;18.13;;;9.40;;
40254;SDS011;25973;52.368;4.940;2022-10-31T05:40:22;20.15;;;9.45;;
40254;SDS011;25973;52.368;4.940;2022-10-31T05:42:50;16.90;;;8.98;;
40254;SDS011;25973;52.368;4.940;2022-10-31T05:45:17;18.25;;;9.55;;
40254;SDS011;25973;52.368;4.940;2022-10-31T05:47:54;16.17;;;9.20;;
40254;SDS011;25973;52.368;4.940;2022-10-31T05:50:21;18.33;;;9.73;;
40254;SDS011;25973;52.368;4.940;2022-10-31T05:52:47;18.45;;;9.77;;
40254;SDS011;25973;52.368;4.940;2022-10-31T05:55:19;28.20;;;10.52;;
40254;SDS011;25973;52.368;4.940;2022-10-31T05:57:44;18.92;;;9.75;;
40254;SDS011;25973;52.368;4.940;2022-10-31T06:00:10;22.58;;;10.93;;
40254;SDS011;25973;52.368;4.940;2022-10-31T06:02:36;21.80;;;11.90;;
40254;SDS011;25973;52.368;4.940;2022-10-31T06:05:01;16.10;;;9.57;;
40254;SDS011;25973;52.368;4.940;2022-10-31T06:07:31;21.75;;;10.95;;
40254;SDS011;25973;52.368;4.940;2022-10-31T06:09:58;18.13;;;9.67;;
40254;SDS011;25973;52.368;4.940;2022-10-31T06:12:23;21.73;;;10.80;;
40254;SDS011;25973;52.368;4.940;2022-10-31T06:14:49;18.40;;;10.57;;
40254;SDS011;25973;52.368;4.940;2022-10-31T06:17:14;21.33;;;10.43;;
40254;SDS011;25973;52.368;4.940;2022-10-31T06:19:40;22.10;;;10.98;;
40254;SDS011;25973;52.368;4.940;2022-10-31T06:22:05;25.10;;;10.48;;
40254;SDS011;25973;52.368;4.940;2022-10-31T06:24:31;18.80;;;9.68;;
40254;SDS011;25973;52.368;4.940;2022-10-31T06:26:57;16.13;;;9.52;;
40254;SDS011;25973;52.368;4.940;2022-10-31T06:29:22;24.02;;;11.30;;
40254;SDS011;25973;52.368;4.940;2022-10-31T06:31:50;23.85;;;10.55;;
40254;SDS011;25973;52.368;4.940;2022-10-31T06:34:16;19.85;;;10.55;;
40254;SDS011;25973;52.368;4.940;2022-10-31T06:36:42;22.85;;;10.73;;
40254;SDS011;25973;52.368;4.940;2022-10-31T06:39:07;20.70;;;10.30;;
40254;SDS011;25973;52.368;4.940;2022-10-31T06:41:33;18.25;;;10.18;;
40254;SDS011;25973;52.368;4.940;2022-10-31T06:43:58;22.30;;;11.10;;
40254;SDS011;25973;52.368;4.940;2022-10-31T06:46:24;21.27;;;10.77;;
40254;SDS011;25973;52.368;4.940;2022-10-31T06:48:49;20.88;;;11.18;;
40254;SDS011;25973;52.368;4.940;2022-10-31T06:51:15;18.13;;;10.95;;
40254;SDS011;25973;52.368;4.940;2022-10-31T06:53:40;26.80;;;11.43;;
40254;SDS011;25973;52.368;4.940;2022-10-31T06:56:06;18.95;;;10.90;;
40254;SDS011;25973;52.368;4.940;2022-10-31T06:58:32;18.98;;;10.45;;
40254;SDS011;25973;52.368;4.940;2022-10-31T07:01:00;24.90;;;11.52;;
40254;SDS011;25973;52.368;4.940;2022-10-31T07:03:26;23.42;;;11.25;;
40254;SDS011;25973;52.368;4.940;2022-10-31T07:05:51;22.15;;;11.52;;
40254;SDS011;25973;52.368;4.940;2022-10-31T07:08:19;20.75;;;10.43;;
40254;SDS011;25973;52.368;4.940;2022-10-31T07:10:50;18.80;;;10.55;;
40254;SDS011;25973;52.368;4.940;2022-10-31T07:13:20;25.63;;;11.63;;
40254;SDS011;25973;52.368;4.940;2022-10-31T07:15:50;24.45;;;12.30;;
40254;SDS011;25973;52.368;4.940;2022-10-31T07:18:17;29.88;;;12.10;;
40254;SDS011;25973;52.368;4.940;2022-10-31T07:20:42;23.17;;;10.07;;
40254;SDS011;25973;52.368;4.940;2022-10-31T07:23:11;19.95;;;10.60;;
40254;SDS011;25973;52.368;4.940;2022-10-31T07:25:40;31.90;;;11.63;;
40254;SDS011;25973;52.368;4.940;2022-10-31T07:28:06;18.92;;;9.82;;
40254;SDS011;25973;52.368;4.940;2022-10-31T07:30:32;25.77;;;11.80;;
40254;SDS011;25973;52.368;4.940;2022-10-31T07:32:58;24.15;;;10.18;;
40254;SDS011;25973;52.368;4.940;2022-10-31T07:35:24;19.75;;;9.88;;
40254;SDS011;25973;52.368;4.940;2022-10-31T07:37:51;32.60;;;10.65;;
40254;SDS011;25973;52.368;4.940;2022-10-31T07:40:17;34.45;;;10.77;;
40254;SDS011;25973;52.368;4.940;2022-10-31T07:42:44;22.33;;;10.50;;
40254;SDS011;25973;52.368;4.940;2022-10-31T07:45:16;29.60;;;12.37;;
40254;SDS011;25973;52.368;4.940;2022-10-31T07:47:44;21.95;;;9.82;;
40254;SDS011;25973;52.368;4.940;2022-10-31T07:50:13;25.77;;;10.82;;
40254;SDS011;25973;52.368;4.940;2022-10-31T07:52:41;19.08;;;9.75;;
40254;SDS011;25973;52.368;4.940;2022-10-31T07:55:07;20.35;;;9.40;;
40254;SDS011;25973;52.368;4.940;2022-10-31T07:57:33;16.70;;;9.27;;
40254;SDS011;25973;52.368;4.940;2022-10-31T07:59:59;20.55;;;8.50;;
40254;SDS011;25973;52.368;4.940;2022-10-31T08:02:25;19.67;;;8.52;;
40254;SDS011;25973;52.368;4.940;2022-10-31T08:04:51;13.50;;;7.90;;
40254;SDS011;25973;52.368;4.940;2022-10-31T08:07:17;19.45;;;9.75;;
40254;SDS011;25973;52.368;4.940;2022-10-31T08:09:43;19.75;;;8.82;;
40254;SDS011;25973;52.368;4.940;2022-10-31T08:12:09;17.02;;;9.27;;
40254;SDS011;25973;52.368;4.940;2022-10-31T08:14:37;14.43;;;8.68;;
40254;SDS011;25973;52.368;4.940;2022-10-31T08:17:02;18.75;;;8.75;;
40254;SDS011;25973;52.368;4.940;2022-10-31T08:19:28;23.95;;;10.30;;
40254;SDS011;25973;52.368;4.940;2022-10-31T08:21:54;17.17;;;9.25;;
40254;SDS011;25973;52.368;4.940;2022-10-31T08:24:20;22.58;;;9.23;;
40254;SDS011;25973;52.368;4.940;2022-10-31T08:26:46;18.05;;;9.40;;
40254;SDS011;25973;52.368;4.940;2022-10-31T08:29:18;19.45;;;9.82;;
40254;SDS011;25973;52.368;4.940;2022-10-31T08:31:43;19.02;;;8.77;;
40254;SDS011;25973;52.368;4.940;2022-10-31T08:34:09;18.75;;;9.13;;
40254;SDS011;25973;52.368;4.940;2022-10-31T08:36:35;21.77;;;9.25;;
40254;SDS011;25973;52.368;4.940;2022-10-31T08:39:00;21.60;;;9.68;;
40254;SDS011;25973;52.368;4.940;2022-10-31T08:41:26;17.90;;;9.32;;
40254;SDS011;25973;52.368;4.940;2022-10-31T08:43:52;20.23;;;9.32;;
40254;SDS011;25973;52.368;4.940;2022-10-31T08:46:17;23.35;;;9.75;;
40254;SDS011;25973;52.368;4.940;2022-10-31T08:48:43;18.95;;;9.43;;
40254;SDS011;25973;52.368;4.940;2022-10-31T08:51:09;23.63;;;8.60;;
40254;SDS011;25973;52.368;4.940;2022-10-31T08:53:35;20.15;;;9.02;;
40254;SDS011;25973;52.368;4.940;2022-10-31T08:56:01;24.38;;;9.30;;
40254;SDS011;25973;52.368;4.940;2022-10-31T08:58:27;22.02;;;8.77;;
40254;SDS011;25973;52.368;4.940;2022-10-31T09:00:53;22.63;;;9.82;;
40254;SDS011;25973;52.368;4.940;2022-10-31T09:03:22;20.52;;;8.88;;
40254;SDS011;25973;52.368;4.940;2022-10-31T09:05:49;20.20;;;10.02;;
40254;SDS011;25973;52.368;4.940;2022-10-31T09:08:16;24.52;;;9.23;;
40254;SDS011;25973;52.368;4.940;2022-10-31T09:10:42;16.17;;;7.57;;
40254;SDS011;25973;52.368;4.940;2022-10-31T09:13:10;23.33;;;8.82;;
40254;SDS011;25973;52.368;4.940;2022-10-31T09:15:38;19.08;;;8.88;;
40254;SDS011;25973;52.368;4.940;2022-10-31T09:18:05;17.35;;;8.20;;
40254;SDS011;25973;52.368;4.940;2022-10-31T09:20:31;15.93;;;8.35;;
40254;SDS011;25973;52.368;4.940;2022-10-31T09:22:59;22.35;;;8.73;;
40254;SDS011;25973;52.368;4.940;2022-10-31T09:25:29;20.63;;;8.75;;
40254;SDS011;25973;52.368;4.940;2022-10-31T09:27:58;17.33;;;8.52;;
40254;SDS011;25973;52.368;4.940;2022-10-31T09:30:25;13.10;;;7.55;;
40254;SDS011;25973;52.368;4.940;2022-10-31T09:32:55;16.45;;;7.32;;
40254;SDS011;25973;52.368;4.940;2022-10-31T09:35:22;12.80;;;6.85;;
40254;SDS011;25973;52.368;4.940;2022-10-31T09:37:53;15.88;;;6.10;;
40254;SDS011;25973;52.368;4.940;2022-10-31T09:40:35;10.93;;;5.43;;
40254;SDS011;25973;52.368;4.940;2022-10-31T09:49:21;13.40;;;6.63;;
40254;SDS011;25973;52.368;4.940;2022-10-31T09:52:00;16.30;;;7.70;;
40254;SDS011;25973;52.368;4.940;2022-10-31T09:54:34;15.02;;;7.63;;
40254;SDS011;25973;52.368;4.940;2022-10-31T09:57:10;16.00;;;7.85;;
40254;SDS011;25973;52.368;4.940;2022-10-31T09:59:40;20.83;;;7.68;;
40254;SDS011;25973;52.368;4.940;2022-10-31T10:02:41;15.40;;;7.50;;
40254;SDS011;25973;52.368;4.940;2022-10-31T10:05:03;11.35;;;6.93;;
40254;SDS011;25973;52.368;4.940;2022-10-31T10:10:29;17.88;;;9.25;;
40254;SDS011;25973;52.368;4.940;2022-10-31T10:13:26;17.40;;;7.20;;
40254;SDS011;25973;52.368;4.940;2022-10-31T10:16:06;15.82;;;7.53;;
40254;SDS011;25973;52.368;4.940;2022-10-31T10:21:48;17.10;;;8.55;;
40254;SDS011;25973;52.368;4.940;2022-10-31T10:24:47;19.73;;;8.82;;
40254;SDS011;25973;52.368;4.940;2022-10-31T10:30:04;17.10;;;8.30;;
40254;SDS011;25973;52.368;4.940;2022-10-31T10:32:54;18.20;;;9.43;;
40254;SDS011;25973;52.368;4.940;2022-10-31T10:40:32;20.10;;;9.75;;
40254;SDS011;25973;52.368;4.940;2022-10-31T10:45:45;20.75;;;8.82;;
40254;SDS011;25973;52.368;4.940;2022-10-31T10:48:44;20.73;;;8.45;;
40254;SDS011;25973;52.368;4.940;2022-10-31T10:51:18;19.15;;;7.85;;
40254;SDS011;25973;52.368;4.940;2022-10-31T10:54:06;18.77;;;8.85;;
40254;SDS011;25973;52.368;4.940;2022-10-31T10:59:36;22.60;;;7.53;;
40254;SDS011;25973;52.368;4.940;2022-10-31T11:02:02;19.08;;;7.82;;
40254;SDS011;25973;52.368;4.940;2022-10-31T11:04:38;12.68;;;6.50;;
40254;SDS011;25973;52.368;4.940;2022-10-31T11:07:09;11.75;;;6.18;;
40254;SDS011;25973;52.368;4.940;2022-10-31T11:09:36;13.43;;;5.65;;
40254;SDS011;25973;52.368;4.940;2022-10-31T11:12:09;15.30;;;5.82;;
40254;SDS011;25973;52.368;4.940;2022-10-31T11:15:00;13.95;;;5.82;;
40254;SDS011;25973;52.368;4.940;2022-10-31T11:17:33;14.55;;;5.53;;
40254;SDS011;25973;52.368;4.940;2022-10-31T11:20:05;10.52;;;4.38;;
40254;SDS011;25973;52.368;4.940;2022-10-31T11:22:37;12.05;;;4.40;;
40254;SDS011;25973;52.368;4.940;2022-10-31T11:27:46;7.80;;;3.78;;
40254;SDS011;25973;52.368;4.940;2022-10-31T11:30:12;7.72;;;3.50;;
40254;SDS011;25973;52.368;4.940;2022-10-31T11:32:44;10.10;;;3.78;;
40254;SDS011;25973;52.368;4.940;2022-10-31T11:35:13;13.90;;;5.03;;
40254;SDS011;25973;52.368;4.940;2022-10-31T11:40:15;13.68;;;3.78;;
40254;SDS011;25973;52.368;4.940;2022-10-31T11:42:51;12.10;;;3.97;;
40254;SDS011;25973;52.368;4.940;2022-10-31T11:47:49;9.85;;;3.65;;
40254;SDS011;25973;52.368;4.940;2022-10-31T11:50:19;8.82;;;3.90;;
40254;SDS011;25973;52.368;4.940;2022-10-31T11:52:47;14.45;;;4.50;;
40254;SDS011;25973;52.368;4.940;2022-10-31T11:55:15;8.88;;;3.50;;
40254;SDS011;25973;52.368;4.940;2022-10-31T11:57:54;7.40;;;3.50;;
40254;SDS011;25973;52.368;4.940;2022-10-31T12:02:49;8.27;;;4.45;;
40254;SDS011;25973;52.368;4.940;2022-10-31T12:05:19;7.95;;;3.85;;
40254;SDS011;25973;52.368;4.940;2022-10-31T12:07:48;9.40;;;4.40;;
40254;SDS011;25973;52.368;4.940;2022-10-31T12:10:17;8.65;;;4.22;;
40254;SDS011;25973;52.368;4.940;2022-10-31T12:17:56;13.38;;;4.72;;
40254;SDS011;25973;52.368;4.940;2022-10-31T12:39:24;22.30;;;10.13;;
40254;SDS011;25973;52.368;4.940;2022-10-31T12:47:49;25.52;;;10.18;;
40254;SDS011;25973;52.368;4.940;2022-10-31T12:56:40;25.45;;;11.00;;
40254;SDS011;25973;52.368;4.940;2022-10-31T13:02:22;21.42;;;10.30;;
40254;SDS011;25973;52.368;4.940;2022-10-31T13:05:40;30.08;;;10.55;;
40254;SDS011;25973;52.368;4.940;2022-10-31T13:08:00;26.63;;;10.15;;
40254;SDS011;25973;52.368;4.940;2022-10-31T13:10:30;25.17;;;10.77;;
40254;SDS011;25973;52.368;4.940;2022-10-31T13:13:10;26.70;;;10.85;;
40254;SDS011;25973;52.368;4.940;2022-10-31T13:15:52;27.75;;;10.68;;
40254;SDS011;25973;52.368;4.940;2022-10-31T13:18:33;27.13;;;11.45;;
40254;SDS011;25973;52.368;4.940;2022-10-31T13:21:07;21.17;;;10.98;;
40254;SDS011;25973;52.368;4.940;2022-10-31T13:23:37;25.00;;;11.15;;
40254;SDS011;25973;52.368;4.940;2022-10-31T13:28:52;28.17;;;10.32;;
40254;SDS011;25973;52.368;4.940;2022-10-31T13:31:25;25.77;;;10.23;;
40254;SDS011;25973;52.368;4.940;2022-10-31T13:41:52;18.88;;;8.73;;
40254;SDS011;25973;52.368;4.940;2022-10-31T13:44:27;21.67;;;8.90;;
40254;SDS011;25973;52.368;4.940;2022-10-31T13:46:55;20.95;;;8.85;;
40254;SDS011;25973;52.368;4.940;2022-10-31T13:54:34;23.35;;;8.40;;
40254;SDS011;25973;52.368;4.940;2022-10-31T13:57:01;22.75;;;9.80;;
40254;SDS011;25973;52.368;4.940;2022-10-31T13:59:32;28.47;;;11.30;;
40254;SDS011;25973;52.368;4.940;2022-10-31T14:02:11;23.42;;;10.32;;
40254;SDS011;25973;52.368;4.940;2022-10-31T14:04:54;27.65;;;10.15;;
40254;SDS011;25973;52.368;4.940;2022-10-31T14:07:25;23.67;;;11.13;;
40254;SDS011;25973;52.368;4.940;2022-10-31T14:10:38;21.10;;;10.57;;
40254;SDS011;25973;52.368;4.940;2022-10-31T14:12:47;25.67;;;10.07;;
40254;SDS011;25973;52.368;4.940;2022-10-31T14:26:19;24.63;;;11.23;;
40254;SDS011;25973;52.368;4.940;2022-10-31T14:28:45;26.17;;;11.75;;
40254;SDS011;25973;52.368;4.940;2022-10-31T14:31:31;28.77;;;12.43;;
40254;SDS011;25973;52.368;4.940;2022-10-31T14:34:19;51.35;;;18.17;;
40254;SDS011;25973;52.368;4.940;2022-10-31T14:43:04;23.77;;;10.73;;
40254;SDS011;25973;52.368;4.940;2022-10-31T14:45:41;35.13;;;11.57;;
40254;SDS011;25973;52.368;4.940;2022-10-31T14:50:58;32.58;;;12.77;;
40254;SDS011;25973;52.368;4.940;2022-10-31T14:53:32;33.13;;;12.50;;
40254;SDS011;25973;52.368;4.940;2022-10-31T14:56:00;34.50;;;12.40;;
40254;SDS011;25973;52.368;4.940;2022-10-31T14:58:34;30.60;;;12.82;;
40254;SDS011;25973;52.368;4.940;2022-10-31T15:01:05;29.65;;;12.07;;
40254;SDS011;25973;52.368;4.940;2022-10-31T15:03:42;31.95;;;12.25;;
40254;SDS011;25973;52.368;4.940;2022-10-31T15:06:14;31.33;;;11.55;;
40254;SDS011;25973;52.368;4.940;2022-10-31T15:08:46;38.40;;;13.07;;
40254;SDS011;25973;52.368;4.940;2022-10-31T15:11:14;33.00;;;13.07;;
40254;SDS011;25973;52.368;4.940;2022-10-31T15:16:12;29.33;;;11.60;;
40254;SDS011;25973;52.368;4.940;2022-10-31T15:18:46;31.27;;;11.10;;
40254;SDS011;25973;52.368;4.940;2022-10-31T15:21:15;36.53;;;13.07;;
40254;SDS011;25973;52.368;4.940;2022-10-31T15:23:42;27.55;;;11.82;;
40254;SDS011;25973;52.368;4.940;2022-10-31T15:26:19;28.80;;;11.63;;
40254;SDS011;25973;52.368;4.940;2022-10-31T15:28:56;27.95;;;12.45;;
40254;SDS011;25973;52.368;4.940;2022-10-31T15:31:37;30.67;;;11.85;;
40254;SDS011;25973;52.368;4.940;2022-10-31T15:34:15;26.75;;;12.05;;
40254;SDS011;25973;52.368;4.940;2022-10-31T15:36:47;27.98;;;11.35;;
40254;SDS011;25973;52.368;4.940;2022-10-31T15:39:20;35.87;;;12.53;;
40254;SDS011;25973;52.368;4.940;2022-10-31T15:41:49;30.55;;;11.18;;
40254;SDS011;25973;52.368;4.940;2022-10-31T15:46:57;29.63;;;11.63;;
40254;SDS011;25973;52.368;4.940;2022-10-31T15:51:57;24.73;;;11.30;;
40254;SDS011;25973;52.368;4.940;2022-10-31T15:54:27;27.58;;;11.48;;
40254;SDS011;25973;52.368;4.940;2022-10-31T15:56:53;31.63;;;11.35;;
40254;SDS011;25973;52.368;4.940;2022-10-31T15:59:20;32.50;;;11.88;;
40254;SDS011;25973;52.368;4.940;2022-10-31T16:02:00;25.35;;;10.93;;
40254;SDS011;25973;52.368;4.940;2022-10-31T16:04:27;33.45;;;10.77;;
40254;SDS011;25973;52.368;4.940;2022-10-31T16:07:10;27.20;;;11.00;;
40254;SDS011;25973;52.368;4.940;2022-10-31T16:09:48;24.63;;;10.30;;
40254;SDS011;25973;52.368;4.940;2022-10-31T16:12:24;28.50;;;10.75;;
40254;SDS011;25973;52.368;4.940;2022-10-31T16:15:13;26.60;;;11.48;;
40254;SDS011;25973;52.368;4.940;2022-10-31T16:17:45;26.23;;;11.15;;
40254;SDS011;25973;52.368;4.940;2022-10-31T16:20:18;31.10;;;11.73;;
40254;SDS011;25973;52.368;4.940;2022-10-31T16:22:50;31.58;;;11.35;;
40254;SDS011;25973;52.368;4.940;2022-10-31T16:25:19;25.20;;;10.90;;
40254;SDS011;25973;52.368;4.940;2022-10-31T16:27:47;29.77;;;11.10;;
40254;SDS011;25973;52.368;4.940;2022-10-31T16:35:53;33.00;;;10.45;;
40254;SDS011;25973;52.368;4.940;2022-10-31T16:38:20;28.45;;;11.88;;
40254;SDS011;25973;52.368;4.940;2022-10-31T16:40:46;34.38;;;11.85;;
40254;SDS011;25973;52.368;4.940;2022-10-31T16:43:12;32.83;;;12.07;;
40254;SDS011;25973;52.368;4.940;2022-10-31T16:45:43;40.92;;;11.98;;
40254;SDS011;25973;52.368;4.940;2022-10-31T16:48:12;31.83;;;12.10;;
40254;SDS011;25973;52.368;4.940;2022-10-31T16:50:40;26.65;;;10.65;;
40254;SDS011;25973;52.368;4.940;2022-10-31T16:53:07;31.92;;;12.40;;
40254;SDS011;25973;52.368;4.940;2022-10-31T16:55:33;33.80;;;11.60;;
40254;SDS011;25973;52.368;4.940;2022-10-31T16:58:00;29.83;;;12.20;;
40254;SDS011;25973;52.368;4.940;2022-10-31T17:00:26;33.50;;;12.63;;
40254;SDS011;25973;52.368;4.940;2022-10-31T17:02:53;30.25;;;13.35;;
40254;SDS011;25973;52.368;4.940;2022-10-31T17:05:21;33.50;;;12.45;;
40254;SDS011;25973;52.368;4.940;2022-10-31T17:07:54;34.20;;;12.30;;
40254;SDS011;25973;52.368;4.940;2022-10-31T17:10:23;31.73;;;13.45;;
40254;SDS011;25973;52.368;4.940;2022-10-31T17:12:50;35.40;;;12.20;;
40254;SDS011;25973;52.368;4.940;2022-10-31T17:15:17;36.08;;;13.27;;
40254;SDS011;25973;52.368;4.940;2022-10-31T17:17:47;31.70;;;12.00;;
40254;SDS011;25973;52.368;4.940;2022-10-31T17:22:44;28.98;;;11.35;;
40254;SDS011;25973;52.368;4.940;2022-10-31T17:25:14;34.65;;;12.98;;